Time;durP1;ratioP1;P1;durP2;ratioP2;P2;SDS_P1;SDS_P2;PMS_P1;PMS_P2;Temp;Humidity;BMP_temperature;BMP_pressure;BME280_temperature;BME280_humidity;BME280_pressure;Samples;Min_cycle;Max_cycle;Signal;HPM_P1;HPM_P2
2022/08/20 00:02:15;;;;;;;1.77;1.40;;;;;;;22.44;56.50;98960.56;5179915;28;20636;-71
2022/08/20 00:05:06;;;;;;;2.72;1.40;;;;;;;22.15;57.18;98969.28;5181584;28;20061;-70
2022/08/20 00:07:57;;;;;;;1.77;1.27;;;;;;;22.18;57.23;98963.47;5177887;28;20096;-71
2022/08/20 00:10:50;;;;;;;1.88;1.38;;;;;;;22.28;57.27;98980.00;5180794;28;20538;-70
2022/08/20 00:13:52;;;;;;;5.93;1.20;;;;;;;22.44;56.79;98975.94;5178129;28;20180;-71
2022/08/20 00:16:43;;;;;;;2.35;1.30;;;;;;;21.95;58.20;98972.13;5184055;28;20550;-70
2022/08/20 00:19:33;;;;;;;1.00;1.00;;;;;;;21.71;58.84;98968.34;5185464;28;20057;-70
2022/08/20 00:22:24;;;;;;;1.30;1.10;;;;;;;21.65;59.28;98974.59;5185041;28;20408;-71
2022/08/20 00:25:18;;;;;;;2.42;1.10;;;;;;;21.52;59.31;98970.94;5185822;28;20428;-70
2022/08/20 00:28:09;;;;;;;1.52;1.20;;;;;;;21.30;60.34;98985.72;5183905;28;20061;-71
2022/08/20 00:31:03;;;;;;;1.45;1.10;;;;;;;21.87;58.59;98981.31;5181867;28;20053;-71
2022/08/20 00:33:53;;;;;;;1.10;1.00;;;;;;;21.96;58.08;98981.91;5182623;28;20106;-70
2022/08/20 00:36:44;;;;;;;3.35;1.15;;;;;;;21.94;58.21;98983.97;5184652;28;20152;-70
2022/08/20 00:39:34;;;;;;;3.60;1.42;;;;;;;22.01;58.38;98982.06;5185160;28;20128;-71
2022/08/20 00:42:25;;;;;;;1.23;1.05;;;;;;;21.62;59.43;98978.53;5184793;28;20516;-70
2022/08/20 00:45:16;;;;;;;2.53;1.20;;;;;;;21.82;58.90;98981.16;5184162;28;20145;-71
2022/08/20 00:48:07;;;;;;;2.65;1.20;;;;;;;21.73;58.92;98988.66;5182717;28;20050;-70
2022/08/20 00:51:05;;;;;;;2.58;1.10;;;;;;;21.60;59.80;98990.63;5184863;28;20037;-70
2022/08/20 00:54:04;;;;;;;1.50;1.10;;;;;;;21.68;59.14;98979.56;5181978;28;20415;-70
2022/08/20 00:57:04;;;;;;;1.63;1.10;;;;;;;21.72;59.14;98995.13;5184767;28;20582;-71
2022/08/20 00:59:57;;;;;;;2.92;1.23;;;;;;;21.60;59.18;98987.91;5180399;28;20645;-70
2022/08/20 01:02:49;;;;;;;1.75;1.23;;;;;;;21.71;58.69;99012.34;5184704;28;20050;-70
2022/08/20 01:05:46;;;;;;;2.03;1.15;;;;;;;21.58;59.15;99002.44;5180983;28;20131;-70
2022/08/20 01:08:38;;;;;;;4.60;1.20;;;;;;;21.27;60.14;98995.06;5184797;28;20077;-71
2022/08/20 01:11:32;;;;;;;1.38;1.27;;;;;;;21.29;60.53;99014.56;5183374;28;20406;-70
2022/08/20 01:14:36;;;;;;;1.98;1.33;;;;;;;21.46;59.70;99025.75;5183158;28;20129;-70
2022/08/20 01:17:31;;;;;;;1.05;0.95;;;;;;;21.35;59.93;99012.91;5168511;28;20053;-70
2022/08/20 01:20:25;;;;;;;1.52;1.42;;;;;;;21.42;60.13;99020.97;5183892;28;20103;-70
2022/08/20 01:23:31;;;;;;;2.80;1.10;;;;;;;21.42;60.08;99035.28;5182115;28;20050;-70
2022/08/20 01:26:36;;;;;;;2.90;1.20;;;;;;;21.32;60.33;99030.34;5183907;28;20120;-71
2022/08/20 01:29:35;;;;;;;1.50;1.40;;;;;;;20.92;61.38;98997.22;5182944;28;20085;-71
2022/08/20 01:32:25;;;;;;;1.83;1.23;;;;;;;21.07;61.71;99032.88;5182969;28;20046;-70
2022/08/20 01:35:20;;;;;;;1.42;1.33;;;;;;;21.02;61.70;99029.97;5181775;28;20169;-70
2022/08/20 01:38:11;;;;;;;3.08;1.05;;;;;;;21.08;61.12;99029.13;5183930;28;20508;-70
2022/08/20 01:41:08;;;;;;;3.58;1.10;;;;;;;20.92;62.29;99029.56;5169141;28;20057;-70
2022/08/20 01:43:58;;;;;;;1.83;1.13;;;;;;;21.11;61.42;99031.41;5180750;28;20527;-71
2022/08/20 01:46:51;;;;;;;1.60;1.20;;;;;;;21.14;61.24;99021.25;5183815;28;20180;-70
2022/08/20 01:49:44;;;;;;;2.08;1.30;;;;;;;21.13;61.78;99047.38;5181654;28;20052;-71
2022/08/20 01:53:16;;;;;;;1.10;1.00;;;;;;;21.07;62.07;99046.34;5183379;28;20522;-70
2022/08/20 01:56:09;;;;;;;1.30;1.20;;;;;;;21.10;61.87;99045.94;5181280;28;20054;-70
2022/08/20 01:59:07;;;;;;;2.63;1.10;;;;;;;20.96;62.18;99033.53;5180379;28;20057;-71
2022/08/20 02:01:58;;;;;;;4.72;1.48;;;;;;;21.31;61.56;99042.13;5195987;28;20064;-70
2022/08/20 02:04:48;;;;;;;1.85;1.35;;;;;;;21.43;60.80;99045.06;5179158;28;20103;-70
2022/08/20 02:07:39;;;;;;;1.33;1.20;;;;;;;21.23;61.44;99023.50;5168648;28;20503;-70
2022/08/20 02:10:32;;;;;;;1.38;1.23;;;;;;;21.48;60.80;99047.91;5182268;28;20404;-70
2022/08/20 02:13:23;;;;;;;1.60;1.08;;;;;;;21.29;61.26;99035.28;5181843;28;20045;-71
2022/08/20 02:16:13;;;;;;;2.90;1.25;;;;;;;21.28;61.83;99047.13;5182182;28;20515;-71
2022/08/20 02:19:11;;;;;;;1.30;1.15;;;;;;;21.30;61.54;99050.44;5179143;22;20093;-84
2022/08/20 02:22:08;;;;;;;2.03;1.23;;;;;;;21.33;61.44;99037.38;5182573;28;20515;-83
2022/08/20 02:24:58;;;;;;;1.25;1.10;;;;;;;21.41;61.39;99054.38;5164829;28;20526;-84
2022/08/20 02:27:50;;;;;;;1.83;1.05;;;;;;;21.46;60.65;99041.09;5176673;28;20089;-84
2022/08/20 02:30:45;;;;;;;1.25;1.15;;;;;;;21.43;61.21;99049.63;5173599;28;20046;-84
2022/08/20 02:33:36;;;;;;;1.40;1.30;;;;;;;21.42;60.88;99046.06;5169949;28;20053;-84
2022/08/20 02:36:28;;;;;;;2.80;1.55;;;;;;;21.43;60.87;99050.44;5164563;28;20125;-84
2022/08/20 02:39:19;;;;;;;2.05;1.30;;;;;;;21.42;60.78;99037.97;5173464;28;20109;-83
2022/08/20 02:42:11;;;;;;;2.42;1.30;;;;;;;21.51;60.80;99060.16;5165395;28;20046;-84
2022/08/20 02:45:03;;;;;;;2.10;1.45;;;;;;;21.55;60.86;99061.38;5161738;28;20042;-84
2022/08/20 02:47:56;;;;;;;3.00;1.45;;;;;;;21.05;62.38;99026.03;5167035;28;20508;-83
2022/08/20 02:50:53;;;;;;;3.10;1.30;;;;;;;21.22;61.55;99035.31;5154997;28;20129;-84
2022/08/20 02:53:43;;;;;;;2.20;1.42;;;;;;;21.17;62.00;99020.81;5158877;28;20046;-83
2022/08/20 02:56:34;;;;;;;2.05;1.40;;;;;;;21.35;61.43;99047.97;5161774;28;20077;-84
2022/08/20 02:59:24;;;;;;;1.92;1.70;;;;;;;21.01;62.18;99020.22;5167613;28;20070;-83
2022/08/20 03:02:15;;;;;;;2.20;1.58;;;;;;;21.25;61.84;99025.97;5165620;28;20073;-84
2022/08/20 03:05:05;;;;;;;6.82;1.48;;;;;;;20.92;62.44;99005.31;5163786;28;20058;-84
2022/08/20 03:07:56;;;;;;;2.47;1.42;;;;;;;21.19;62.17;99016.03;5175687;28;20508;-84
2022/08/20 03:10:47;;;;;;;2.30;1.58;;;;;;;21.54;61.17;99032.75;5167610;28;20052;-84
2022/08/20 03:13:38;;;;;;;2.50;2.10;;;;;;;20.93;63.14;99009.69;5169027;28;20060;-84
2022/08/20 03:16:28;;;;;;;2.08;1.63;;;;;;;21.24;62.43;99025.16;5165492;28;20437;-84
2022/08/20 03:19:18;;;;;;;2.20;2.00;;;;;;;21.40;61.66;99032.00;5165127;28;20057;-84
2022/08/20 03:22:08;;;;;;;1.90;1.35;;;;;;;21.38;61.40;99014.34;5163443;28;20050;-84
2022/08/20 03:24:58;;;;;;;2.10;1.50;;;;;;;21.53;61.08;99031.13;5173501;28;20120;-84
2022/08/20 03:27:48;;;;;;;1.75;1.58;;;;;;;21.61;60.86;99038.13;5167164;28;20574;-84
2022/08/20 03:30:43;;;;;;;2.00;1.80;;;;;;;21.60;60.83;99039.19;5164099;28;20046;-84
2022/08/20 03:33:34;;;;;;;2.05;1.73;;;;;;;21.58;61.32;99037.50;5165915;28;20100;-85
2022/08/20 03:36:26;;;;;;;4.63;2.00;;;;;;;21.64;61.39;99037.69;5177059;28;20053;-84
2022/08/20 03:39:17;;;;;;;2.40;1.97;;;;;;;21.43;60.97;99009.97;5164423;28;20056;-84
2022/08/20 03:42:07;;;;;;;1.45;1.25;;;;;;;21.43;61.09;99009.97;5166882;28;20108;-84
2022/08/20 03:44:57;;;;;;;2.90;1.55;;;;;;;21.52;61.06;99030.28;5171370;28;20109;-84
2022/08/20 03:47:50;;;;;;;1.60;1.50;;;;;;;21.53;61.13;99034.63;5161432;28;20524;-84
2022/08/20 03:50:41;;;;;;;2.35;1.80;;;;;;;21.54;61.27;99035.47;5173036;28;20055;-84
2022/08/20 03:53:31;;;;;;;3.65;1.80;;;;;;;21.44;61.28;99030.50;5170070;28;20416;-84
2022/08/20 03:56:22;;;;;;;3.13;2.20;;;;;;;21.47;61.23;99037.34;5154412;28;20054;-84
2022/08/20 03:59:12;;;;;;;3.03;1.83;;;;;;;21.42;61.49;99046.06;5170416;28;20057;-84
2022/08/20 04:02:02;;;;;;;2.65;2.05;;;;;;;21.19;61.95;99016.03;5155901;28;20099;-84
2022/08/20 04:04:53;;;;;;;2.70;1.83;;;;;;;21.26;61.99;99024.97;5152129;28;20469;-84
2022/08/20 04:07:44;;;;;;;4.68;1.80;;;;;;;21.21;62.52;99041.75;5167890;28;20640;-84
2022/08/20 04:10:34;;;;;;;5.30;2.22;;;;;;;21.42;61.83;99047.94;5170592;28;20326;-84
2022/08/20 04:13:26;;;;;;;2.47;2.28;;;;;;;21.32;62.85;99051.06;5168726;28;20077;-84
2022/08/20 04:16:18;;;;;;;3.83;2.30;;;;;;;21.37;62.33;99040.50;5166654;28;20050;-84
2022/08/20 04:19:08;;;;;;;3.33;2.40;;;;;;;21.47;62.44;99040.06;5170434;28;20065;-84
2022/08/20 04:21:59;;;;;;;3.13;2.50;;;;;;;21.50;61.81;99045.84;5167201;28;20571;-84
2022/08/20 04:24:49;;;;;;;3.90;2.22;;;;;;;21.63;61.77;99049.53;5167629;28;20139;-84
2022/08/20 04:27:40;;;;;;;4.20;2.35;;;;;;;21.65;62.04;99044.75;5172174;28;20057;-85
2022/08/20 04:30:31;;;;;;;3.20;2.30;;;;;;;21.49;62.04;99040.66;5152208;28;20058;-84
2022/08/20 04:33:23;;;;;;;5.43;2.40;;;;;;;21.61;62.17;99059.72;5166723;28;20046;-84
2022/08/20 04:36:24;;;;;;;4.28;2.40;;;;;;;21.48;62.44;99061.41;5156673;28;20138;-84
2022/08/20 04:39:15;;;;;;;4.05;2.70;;;;;;;21.44;62.69;99068.28;5166059;28;20140;-84
2022/08/20 04:42:06;;;;;;;3.35;2.60;;;;;;;21.62;61.97;99053.25;5163858;28;20492;-84
2022/08/20 04:44:56;;;;;;;5.32;2.10;;;;;;;21.73;61.78;99060.72;5167816;28;20053;-84
2022/08/20 04:47:46;;;;;;;3.30;2.65;;;;;;;21.90;61.43;99077.25;5165358;28;20060;-84
2022/08/20 04:50:38;;;;;;;3.97;2.45;;;;;;;21.82;61.53;99062.13;5167270;28;20107;-84
2022/08/20 04:53:28;;;;;;;3.53;2.70;;;;;;;21.68;61.81;99061.34;5164284;28;20060;-84
2022/08/20 04:56:24;;;;;;;3.83;2.75;;;;;;;21.75;61.87;99080.19;5155119;28;20061;-84
2022/08/20 04:59:15;;;;;;;4.60;2.30;;;;;;;21.83;61.86;99068.34;5164712;28;20424;-84
2022/08/20 05:02:05;;;;;;;5.68;2.90;;;;;;;21.86;61.45;99062.53;5172040;28;20104;-84
2022/08/20 05:04:55;;;;;;;3.70;2.42;;;;;;;21.87;61.14;99062.28;5171583;28;20053;-85
2022/08/20 05:07:46;;;;;;;3.47;2.70;;;;;;;22.00;61.31;99083.81;5171499;28;20057;-84
2022/08/20 05:10:38;;;;;;;4.00;2.38;;;;;;;21.96;61.69;99081.78;5190763;23;20049;-72
2022/08/20 05:13:28;;;;;;;4.10;2.70;;;;;;;21.94;61.63;99087.38;5190932;28;20053;-73
2022/08/20 05:16:19;;;;;;;2.60;2.38;;;;;;;22.08;61.12;99090.00;5183896;28;20054;-72
2022/08/20 05:19:11;;;;;;;3.80;2.90;;;;;;;22.12;61.28;99083.97;5184303;28;20053;-72
2022/08/20 05:22:01;;;;;;;3.08;2.78;;;;;;;22.10;61.31;99079.84;5180194;28;20061;-72
2022/08/20 05:24:52;;;;;;;3.33;2.72;;;;;;;22.02;61.56;99080.94;5183325;28;20057;-71
2022/08/20 05:27:42;;;;;;;5.75;3.03;;;;;;;21.96;61.64;99097.97;5184372;28;20072;-72
2022/08/20 05:30:44;;;;;;;3.20;2.90;;;;;;;22.27;61.02;99102.63;5181891;28;20522;-73
2022/08/20 05:33:37;;;;;;;4.03;3.08;;;;;;;22.11;61.53;99112.00;5183132;28;20049;-72
2022/08/20 05:36:28;;;;;;;3.83;2.78;;;;;;;22.18;61.20;99107.44;5180411;28;20073;-71
2022/08/20 05:39:19;;;;;;;3.20;2.85;;;;;;;22.11;61.14;99097.69;5183175;28;20052;-72
2022/08/20 05:42:10;;;;;;;4.70;3.15;;;;;;;21.84;62.10;99103.22;5183398;28;20057;-71
2022/08/20 05:45:00;;;;;;;5.05;2.92;;;;;;;22.04;61.71;99095.84;5180995;28;20060;-72
2022/08/20 05:47:51;;;;;;;3.90;3.17;;;;;;;22.08;61.62;99111.63;5184044;28;20089;-73
2022/08/20 05:50:48;;;;;;;3.40;2.88;;;;;;;22.13;61.55;99106.41;5189130;28;20124;-71
2022/08/20 05:53:38;;;;;;;5.20;3.15;;;;;;;22.16;61.46;99108.72;5180668;28;20566;-71
2022/08/20 05:56:29;;;;;;;5.25;3.70;;;;;;;22.19;61.19;99109.09;5183508;28;20053;-72
2022/08/20 05:59:21;;;;;;;3.22;2.80;;;;;;;22.17;61.13;99102.25;5179578;28;20050;-71
2022/08/20 06:05:23;;;;;;;5.75;3.53;;;;;;;22.21;61.32;99111.56;5183014;28;20061;-72
2022/08/20 06:08:15;;;;;;;6.60;3.70;;;;;;;22.31;61.38;99111.09;5182425;28;20141;-71
2022/08/20 06:11:06;;;;;;;5.00;3.50;;;;;;;22.49;60.94;99109.34;5196270;28;20423;-72
2022/08/20 06:13:56;;;;;;;3.47;3.00;;;;;;;22.62;60.80;99110.31;5183075;28;20050;-71
2022/08/20 06:16:47;;;;;;;5.22;3.00;;;;;;;22.50;61.59;99118.25;5183125;28;20133;-72
2022/08/20 06:19:47;;;;;;;4.47;3.20;;;;;;;22.36;61.43;99112.13;5180318;28;20052;-71
2022/08/20 06:22:39;;;;;;;3.63;3.15;;;;;;;22.38;61.32;99118.13;5182095;28;20569;-71
2022/08/20 06:25:30;;;;;;;5.70;3.55;;;;;;;22.23;61.99;99117.59;5182509;28;20264;-73
2022/08/20 06:28:26;;;;;;;6.95;3.28;;;;;;;22.45;60.97;99109.97;5182601;28;20094;-71
2022/08/20 06:31:17;;;;;;;5.00;3.30;;;;;;;22.34;61.44;99126.88;5170835;28;20046;-71
2022/08/20 06:34:08;;;;;;;5.38;3.05;;;;;;;22.63;61.48;99136.28;5181380;28;20100;-72
2022/08/20 06:36:58;;;;;;;5.70;3.15;;;;;;;22.44;61.80;99121.84;5179839;28;20061;-71
2022/08/20 06:39:50;;;;;;;6.82;3.50;;;;;;;22.45;62.06;99140.53;5180780;28;20052;-72
2022/08/20 06:42:43;;;;;;;5.63;3.67;;;;;;;22.79;60.98;99138.44;5179171;28;20056;-72
2022/08/20 06:45:38;;;;;;;8.13;3.47;;;;;;;22.56;61.39;99138.19;5182685;28;20058;-71
2022/08/20 06:48:28;;;;;;;5.47;3.60;;;;;;;22.08;63.72;99144.84;5181524;28;20050;-72
2022/08/20 06:51:19;;;;;;;5.30;3.70;;;;;;;22.65;61.72;99143.13;5180997;28;20507;-70
2022/08/20 06:54:09;;;;;;;4.68;3.35;;;;;;;22.31;63.19;99144.34;5182405;28;20138;-70
2022/08/20 06:57:01;;;;;;;4.57;3.50;;;;;;;22.60;63.41;99144.81;5180803;28;20172;-69
2022/08/20 06:59:53;;;;;;;5.90;3.35;;;;;;;22.63;62.13;99126.28;5179805;28;20107;-69
2022/08/20 07:02:45;;;;;;;5.80;3.90;;;;;;;22.94;62.19;99124.63;5180919;28;20752;-71
2022/08/20 07:05:42;;;;;;;6.47;3.47;;;;;;;22.71;62.13;99141.41;5194926;28;20097;-72
2022/08/20 07:08:34;;;;;;;5.45;3.35;;;;;;;22.70;62.60;99143.28;5182485;28;20050;-72
2022/08/20 07:11:25;;;;;;;6.18;3.83;;;;;;;22.41;62.63;99143.88;5181749;28;20081;-70
2022/08/20 07:14:18;;;;;;;6.70;3.20;;;;;;;22.60;61.97;99144.81;5182040;28;20647;-70
2022/08/20 07:17:09;;;;;;;6.35;3.55;;;;;;;22.58;62.29;99152.28;5180296;28;20064;-72
2022/08/20 07:20:07;;;;;;;7.57;3.53;;;;;;;22.24;62.59;99146.25;5179654;28;20054;-70
2022/08/20 07:22:59;;;;;;;6.10;3.85;;;;;;;22.55;62.55;99152.72;5178890;28;20092;-70
2022/08/20 07:25:49;;;;;;;5.47;3.55;;;;;;;22.59;62.35;99151.28;5181072;28;20053;-69
2022/08/20 07:28:40;;;;;;;7.00;4.20;;;;;;;23.02;60.89;99148.69;5177816;28;20058;-71
2022/08/20 07:34:40;;;;;;;9.35;4.00;;;;;;;23.28;59.83;99153.03;5179176;28;20042;-72
2022/08/20 07:37:42;;;;;;;8.40;4.50;;;;;;;23.16;60.16;99155.63;5180194;28;20046;-70
2022/08/20 07:40:34;;;;;;;5.93;3.90;;;;;;;23.08;60.02;99155.06;5180713;28;20060;-70
2022/08/20 07:43:24;;;;;;;6.35;4.28;;;;;;;23.37;59.94;99165.22;5173210;28;20080;-71
2022/08/20 07:46:18;;;;;;;5.05;4.22;;;;;;;24.07;58.03;99158.66;5181005;28;20057;-70
2022/08/20 07:49:10;;;;;;;5.78;4.25;;;;;;;24.21;57.18;99159.34;5174758;28;20049;-70
2022/08/20 07:52:00;;;;;;;5.47;3.80;;;;;;;24.25;57.05;99163.25;5180173;28;20078;-71
2022/08/20 07:54:51;;;;;;;3.95;3.55;;;;;;;24.27;57.31;99166.53;5181754;28;20115;-70
2022/08/20 07:57:45;;;;;;;6.60;3.90;;;;;;;23.66;58.49;99165.56;5208266;28;20550;-71
2022/08/20 08:00:36;;;;;;;7.13;3.70;;;;;;;24.07;57.91;99159.50;5181020;28;20061;-71
2022/08/20 08:03:28;;;;;;;5.65;3.30;;;;;;;24.04;57.79;99164.53;5182057;28;20116;-70
2022/08/20 08:06:39;;;;;;;4.15;3.42;;;;;;;24.29;56.16;99161.72;5186350;28;20077;-69
2022/08/20 08:09:32;;;;;;;5.07;3.25;;;;;;;24.57;55.72;99142.19;5193863;28;20532;-71
2022/08/20 08:12:25;;;;;;;6.20;3.70;;;;;;;24.78;55.99;99157.09;5181395;28;20161;-72
2022/08/20 08:15:21;;;;;;;7.03;3.90;;;;;;;25.39;54.29;99157.78;5182607;28;20053;-69
2022/08/20 08:18:20;;;;;;;5.10;3.30;;;;;;;25.80;53.19;99156.00;5181600;28;20540;-69
2022/08/20 08:21:11;;;;;;;4.85;3.67;;;;;;;25.10;53.82;99149.50;5181859;28;20053;-70
2022/08/20 08:24:02;;;;;;;3.30;3.00;;;;;;;25.50;53.53;99146.94;5181331;28;20061;-70
2022/08/20 08:26:52;;;;;;;4.40;3.22;;;;;;;25.50;53.81;99155.06;5181816;28;20060;-70
2022/08/20 08:29:44;;;;;;;3.60;3.00;;;;;;;25.97;53.00;99154.22;5182186;28;20495;-70
2022/08/20 08:32:36;;;;;;;4.97;4.03;;;;;;;26.83;51.63;99157.78;5181473;28;20073;-69
2022/08/20 08:35:27;;;;;;;4.65;3.20;;;;;;;26.90;50.05;99131.22;5184006;28;20052;-70
2022/08/20 08:38:17;;;;;;;4.50;3.17;;;;;;;27.28;49.03;99146.00;5185556;28;20061;-70
2022/08/20 08:41:32;;;;;;;3.85;2.83;;;;;;;27.06;48.92;99140.47;5181819;28;20273;-72
2022/08/20 08:44:34;;;;;;;7.10;3.08;;;;;;;26.25;50.27;99140.63;5187210;28;20045;-69
2022/08/20 08:47:29;;;;;;;2.90;2.30;;;;;;;26.20;51.18;99153.31;5171351;28;20443;-68
2022/08/20 08:50:30;;;;;;;3.15;2.60;;;;;;;27.77;46.85;99148.06;5198508;28;20060;-70
2022/08/20 08:53:46;;;;;;;2.92;2.30;;;;;;;26.06;51.46;99162.78;5185329;28;20104;-70
2022/08/20 08:56:36;;;;;;;2.60;2.40;;;;;;;26.65;50.26;99157.97;5201499;22;20045;-71
2022/08/20 08:59:28;;;;;;;3.45;2.45;;;;;;;26.78;49.68;99168.53;5203196;28;20171;-75
2022/08/20 09:02:41;;;;;;;2.95;2.67;;;;;;;25.69;52.23;99158.47;5184242;28;20184;-73
2022/08/20 09:05:47;;;;;;;2.72;2.17;;;;;;;26.84;49.17;99166.75;5193809;28;20076;-72
2022/08/20 09:08:47;;;;;;;5.45;2.13;;;;;;;26.36;50.91;99168.84;5203280;28;20049;-73
2022/08/20 09:11:47;;;;;;;3.80;2.53;;;;;;;25.80;52.21;99158.72;5199336;28;20371;-72
2022/08/20 09:14:38;;;;;;;3.63;2.33;;;;;;;26.25;51.30;99167.81;5204490;28;20060;-72
2022/08/20 09:17:28;;;;;;;3.78;2.45;;;;;;;26.66;50.54;99163.19;5203257;28;20076;-72
2022/08/20 09:20:19;;;;;;;4.32;2.60;;;;;;;26.40;51.73;99150.16;5195037;28;20511;-74
2022/08/20 09:23:12;;;;;;;6.45;3.33;;;;;;;25.74;52.22;99123.28;5195711;28;20061;-75
2022/08/20 09:26:02;;;;;;;3.28;2.28;;;;;;;25.98;52.69;99161.28;5197653;28;20057;-73
2022/08/20 09:28:53;;;;;;;6.30;2.92;;;;;;;25.63;53.84;99164.00;5199665;28;20053;-73
2022/08/20 09:31:43;;;;;;;3.65;2.97;;;;;;;25.85;53.26;99147.97;5193890;28;20049;-72
2022/08/20 09:34:37;;;;;;;6.55;2.80;;;;;;;25.31;54.41;99162.50;5191775;28;20059;-74
2022/08/20 09:37:30;;;;;;;4.22;2.90;;;;;;;25.90;53.22;99142.66;5186292;28;20089;-74
2022/08/20 09:40:26;;;;;;;4.03;2.80;;;;;;;25.34;54.52;99155.78;5182456;28;20053;-74
2022/08/20 09:43:17;;;;;;;4.50;2.80;;;;;;;25.37;54.21;99143.63;5182372;28;20046;-74
2022/08/20 09:46:07;;;;;;;3.75;2.90;;;;;;;24.99;55.97;99129.41;5183415;28;20633;-74
2022/08/20 09:48:57;;;;;;;3.47;2.75;;;;;;;26.01;53.67;99149.94;5200312;28;20507;-74
2022/08/20 09:51:47;;;;;;;4.20;2.80;;;;;;;26.67;51.37;99143.06;5190850;28;20139;-73
2022/08/20 09:54:39;;;;;;;2.55;2.30;;;;;;;27.02;49.25;99155.66;5183390;28;20056;-74
2022/08/20 09:57:35;;;;;;;4.20;2.60;;;;;;;27.11;49.78;99142.44;5181556;28;20053;-73
2022/08/20 10:00:26;;;;;;;3.85;2.70;;;;;;;27.05;49.16;99133.38;5183711;28;20249;-74
2022/08/20 10:03:17;;;;;;;2.60;2.25;;;;;;;26.48;50.62;99152.50;5182467;28;20050;-74
2022/08/20 10:06:09;;;;;;;2.33;2.10;;;;;;;27.31;48.75;99153.66;5200974;28;20053;-74
2022/08/20 10:09:02;;;;;;;2.97;2.67;;;;;;;26.16;50.95;99130.41;5204256;28;20539;-74
2022/08/20 10:11:52;;;;;;;3.25;2.83;;;;;;;26.60;50.99;99153.28;5203580;28;20046;-74
2022/08/20 10:14:42;;;;;;;4.35;2.80;;;;;;;26.18;51.97;99150.81;5204177;28;20141;-75
2022/08/20 10:17:37;;;;;;;4.32;3.17;;;;;;;25.44;53.69;99152.47;5203682;28;20186;-75
2022/08/20 10:20:27;;;;;;;5.28;3.38;;;;;;;25.39;54.51;99147.75;5202575;28;20061;-74
2022/08/20 10:23:18;;;;;;;4.03;3.25;;;;;;;25.51;54.43;99155.91;5203407;28;20084;-73
2022/08/20 10:26:10;;;;;;;7.22;4.10;;;;;;;25.63;54.57;99159.44;5202797;28;20051;-73
2022/08/20 10:29:00;;;;;;;5.80;4.90;;;;;;;25.30;55.39;99160.03;5199836;28;20057;-72
2022/08/20 10:31:51;;;;;;;8.32;6.35;;;;;;;25.02;55.54;99160.69;5202946;28;20447;-74
2022/08/20 10:34:43;;;;;;;3.85;3.40;;;;;;;25.68;53.87;99145.13;5200220;28;20119;-71
2022/08/20 10:37:35;;;;;;;3.30;3.00;;;;;;;25.37;53.83;99151.78;5198766;28;20068;-73
2022/08/20 10:40:25;;;;;;;3.90;2.95;;;;;;;26.09;52.63;99140.56;5212999;28;20530;-73
2022/08/20 10:43:15;;;;;;;8.40;3.20;;;;;;;26.10;52.34;99140.34;5190539;28;20644;-73
2022/08/20 10:46:06;;;;;;;3.35;2.72;;;;;;;26.02;53.16;99148.84;5182005;28;20065;-73
2022/08/20 10:48:56;;;;;;;3.47;2.60;;;;;;;25.01;54.05;99145.47;5168074;28;20069;-73
2022/08/20 10:51:46;;;;;;;9.82;2.90;;;;;;;23.63;60.82;99138.94;5182964;28;20586;-72
2022/08/20 10:54:40;;;;;;;12.23;4.88;;;;;;;23.93;63.21;99128.22;5191386;28;20045;-74
2022/08/20 10:57:32;;;;;;;9.38;4.03;;;;;;;24.18;63.04;99140.84;5201779;28;20060;-76
2022/08/20 11:00:22;;;;;;;13.32;4.28;;;;;;;24.23;64.33;99146.38;5202179;28;20068;-75
2022/08/20 11:03:15;;;;;;;5.10;4.25;;;;;;;23.80;64.40;99153.56;5203547;28;20132;-74
2022/08/20 11:06:05;;;;;;;5.85;4.30;;;;;;;24.25;62.79;99150.50;5203439;28;20060;-75
2022/08/20 11:08:55;;;;;;;5.40;4.25;;;;;;;25.67;62.94;99138.06;5188413;28;20057;-75
2022/08/20 11:11:46;;;;;;;7.85;5.38;;;;;;;26.35;59.72;99125.59;5196227;28;20431;-73
2022/08/20 11:14:36;;;;;;;4.53;3.80;;;;;;;25.48;58.27;99140.06;5203071;28;20046;-72
2022/08/20 11:17:30;;;;;;;4.85;4.25;;;;;;;25.56;60.56;99153.28;5203468;28;20158;-72
2022/08/20 11:20:26;;;;;;;4.65;2.70;;;;;;;27.30;54.23;99149.28;5202413;28;20136;-72
2022/08/20 11:23:16;;;;;;;2.20;2.00;;;;;;;25.34;55.70;99144.94;5202038;28;20094;-72
2022/08/20 11:26:07;;;;;;;2.70;2.50;;;;;;;26.63;54.62;99136.47;5201688;28;20049;-72
2022/08/20 11:28:57;;;;;;;2.88;2.35;;;;;;;26.25;53.71;99154.22;5200800;28;20049;-72
2022/08/20 11:31:48;;;;;;;2.50;2.20;;;;;;;26.12;54.31;99151.78;5202218;28;20519;-72
2022/08/20 11:34:38;;;;;;;3.28;2.40;;;;;;;26.13;54.29;99145.31;5203423;28;20414;-72
2022/08/20 11:37:30;;;;;;;4.05;2.33;;;;;;;25.81;53.16;99133.22;5202916;28;20051;-72
2022/08/20 11:40:20;;;;;;;3.00;2.40;;;;;;;25.78;55.12;99143.44;5191138;28;20324;-73
2022/08/20 11:43:11;;;;;;;2.10;1.90;;;;;;;25.94;53.78;99149.25;5188435;28;20072;-72
2022/08/20 11:46:04;;;;;;;3.33;2.10;;;;;;;25.24;55.48;99148.22;5192319;28;20148;-72
2022/08/20 11:48:55;;;;;;;2.75;1.98;;;;;;;25.44;54.15;99128.06;5190339;28;20505;-72
2022/08/20 11:51:45;;;;;;;1.80;1.70;;;;;;;25.36;54.88;99155.53;5189968;28;20123;-72
2022/08/20 11:54:39;;;;;;;3.45;1.88;;;;;;;25.62;53.52;99149.63;5191851;28;20067;-73
2022/08/20 11:57:32;;;;;;;2.08;1.80;;;;;;;25.62;54.38;99156.94;5188769;28;20537;-73
2022/08/20 12:00:23;;;;;;;2.30;1.80;;;;;;;25.76;52.51;99150.19;5191984;28;20103;-72
2022/08/20 12:03:22;;;;;;;1.75;1.58;;;;;;;25.52;53.23;99154.81;5200188;28;20068;-71
2022/08/20 12:06:13;;;;;;;1.90;1.52;;;;;;;25.26;54.36;99148.81;5200138;28;20309;-72
2022/08/20 12:09:03;;;;;;;1.88;1.77;;;;;;;25.26;53.91;99159.66;5200956;28;20053;-73
2022/08/20 12:11:54;;;;;;;2.92;1.65;;;;;;;25.48;53.28;99153.66;5199858;28;20053;-72
2022/08/20 12:14:44;;;;;;;2.20;1.95;;;;;;;25.48;53.90;99145.50;5201846;28;20057;-72
2022/08/20 12:17:34;;;;;;;1.90;1.80;;;;;;;26.12;53.12;99154.50;5197194;28;20523;-72
2022/08/20 12:20:25;;;;;;;1.75;1.65;;;;;;;26.13;52.00;99142.59;5188828;28;20179;-71
2022/08/20 12:23:15;;;;;;;3.75;2.03;;;;;;;26.16;53.12;99152.97;5193325;28;20087;-70
2022/08/20 12:26:05;;;;;;;5.40;1.60;;;;;;;26.52;51.67;99148.22;5188897;28;20060;-72
2022/08/20 12:28:55;;;;;;;1.55;1.20;;;;;;;26.67;48.91;99151.22;5189841;28;20054;-73
2022/08/20 12:31:46;;;;;;;1.30;1.05;;;;;;;26.92;47.82;99139.13;5186811;28;20057;-73
2022/08/20 12:34:39;;;;;;;2.05;1.65;;;;;;;27.29;47.37;99138.66;5187602;28;20049;-73
2022/08/20 12:37:30;;;;;;;0.80;0.73;;;;;;;27.28;46.66;99137.00;5193897;28;20410;-71
2022/08/20 12:40:23;;;;;;;3.47;0.80;;;;;;;27.68;45.25;99134.03;5191767;28;20056;-72
2022/08/20 12:43:22;;;;;;;1.17;0.82;;;;;;;27.34;46.72;99130.56;5182326;28;20053;-70
2022/08/20 12:46:14;;;;;;;0.93;0.93;;;;;;;26.82;48.13;99128.06;5188972;28;20060;-72
2022/08/20 12:49:04;;;;;;;1.02;0.93;;;;;;;26.60;48.82;99125.25;5188927;28;20057;-72
2022/08/20 12:51:55;;;;;;;1.90;1.20;;;;;;;25.86;50.98;99136.88;5187751;28;20183;-72
2022/08/20 12:54:45;;;;;;;1.98;1.20;;;;;;;26.12;53.59;99148.25;5194158;28;20656;-71
2022/08/20 12:57:40;;;;;;;17.33;3.83;;;;;;;25.46;58.87;99153.06;5183892;28;20168;-71
2022/08/20 13:00:35;;;;;;;7.80;2.20;;;;;;;24.99;59.83;99144.88;5188531;28;20072;-71
2022/08/20 13:03:25;;;;;;;5.25;1.13;;;;;;;24.67;59.22;99147.88;5189938;28;20557;-71
2022/08/20 13:06:21;;;;;;;3.13;1.20;;;;;;;24.62;60.40;99155.88;5188649;28;20041;-72
2022/08/20 13:09:12;;;;;;;2.33;1.27;;;;;;;24.38;60.04;99169.31;5189381;28;20054;-71
2022/08/20 13:12:03;;;;;;;1.33;1.20;;;;;;;24.52;59.95;99163.72;5190834;28;20767;-71
2022/08/20 13:14:54;;;;;;;2.70;1.40;;;;;;;24.35;60.36;99169.75;5188816;28;20538;-71
2022/08/20 13:17:50;;;;;;;3.88;1.30;;;;;;;24.18;61.26;99162.50;5184221;28;20100;-72
2022/08/20 13:20:41;;;;;;;2.53;1.33;;;;;;;24.10;61.88;99152.78;5186382;28;20045;-72
2022/08/20 13:23:31;;;;;;;4.30;1.75;;;;;;;24.06;61.72;99157.84;5188777;28;20042;-71
2022/08/20 13:26:21;;;;;;;4.82;1.70;;;;;;;23.96;61.93;99137.78;5191467;28;20048;-72
2022/08/20 13:29:12;;;;;;;2.40;1.95;;;;;;;23.77;64.47;99154.00;5192522;28;20111;-71
2022/08/20 13:32:03;;;;;;;3.17;2.30;;;;;;;24.00;63.31;99141.66;5200786;28;20060;-71
2022/08/20 13:34:53;;;;;;;5.47;2.22;;;;;;;24.05;64.10;99148.06;5185801;28;20053;-74
2022/08/20 13:37:44;;;;;;;2.50;2.30;;;;;;;24.46;64.16;99143.78;5190802;28;20127;-74
2022/08/20 13:40:34;;;;;;;5.30;2.05;;;;;;;24.85;62.49;99141.53;5203741;28;20061;-74